Time;durP1;ratioP1;P1;durP2;ratioP2;P2;SDS_P1;SDS_P2;PMS_P1;PMS_P2;Temp;Humidity;BMP_temperature;BMP_pressure;BME280_temperature;BME280_humidity;BME280_pressure;Samples;Min_cycle;Max_cycle;Signal;HPM_P1;HPM_P2
2024/02/29 00:01:24;;;;;;;26.80;18.00;;;;;;;6.49;91.54;99329.80;226914;1272;22551;-76
2024/02/29 00:06:27;;;;;;;42.60;18.90;;;;;;;6.48;92.09;99327.95;226855;1273;22582;-76
2024/02/29 00:11:29;;;;;;;40.50;19.90;;;;;;;6.48;91.72;99331.05;226724;1273;24285;-76
2024/02/29 00:16:31;;;;;;;37.80;19.00;;;;;;;6.48;91.83;99328.29;226897;1272;22595;-76
2024/02/29 00:21:34;;;;;;;35.90;20.80;;;;;;;6.50;91.70;99334.02;226737;1272;23028;-76
2024/02/29 00:26:36;;;;;;;61.00;19.50;;;;;;;6.52;91.90;99328.80;226813;1271;22559;-76
2024/02/29 00:31:43;;;;;;;33.50;19.70;;;;;;;6.53;91.62;99332.56;226746;1268;22576;-75
2024/02/29 00:36:45;;;;;;;46.40;22.60;;;;;;;6.54;91.83;99331.41;226941;1270;22555;-76
2024/02/29 00:41:47;;;;;;;58.50;20.80;;;;;;;6.52;91.79;99331.42;226897;1270;22586;-75
2024/02/29 00:46:49;;;;;;;50.80;21.40;;;;;;;6.51;91.81;99331.13;226849;1270;22582;-75
2024/02/29 00:51:51;;;;;;;43.60;21.20;;;;;;;6.51;91.75;99331.16;226614;1270;170817;-76
2024/02/29 00:56:53;;;;;;;49.10;20.80;;;;;;;6.50;91.83;99331.98;226941;1271;25239;-76
2024/02/29 01:01:55;;;;;;;40.60;20.90;;;;;;;6.47;91.72;99327.35;226877;1268;22679;-76
2024/02/29 01:06:58;;;;;;;37.30;19.30;;;;;;;6.46;91.74;99324.52;226684;1256;22540;-76
2024/02/29 01:12:00;;;;;;;39.00;21.60;;;;;;;6.43;91.80;99323.15;226990;1268;25882;-76
2024/02/29 01:17:01;;;;;;;62.90;21.70;;;;;;;6.40;91.80;99321.54;226918;1268;22908;-75
2024/02/29 01:22:04;;;;;;;34.60;20.10;;;;;;;6.41;92.16;99319.02;226841;1270;22536;-76
2024/02/29 01:27:06;;;;;;;54.50;21.80;;;;;;;6.41;91.97;99315.47;226822;1273;25416;-76
2024/02/29 01:32:09;;;;;;;48.40;21.50;;;;;;;6.42;92.06;99313.63;226801;1268;22539;-76
2024/02/29 01:37:23;;;;;;;47.70;22.20;;;;;;;6.44;91.95;99308.77;226888;1267;22564;-76
2024/02/29 01:42:25;;;;;;;54.40;22.20;;;;;;;6.45;92.06;99302.71;226931;1273;22557;-76
2024/02/29 01:47:27;;;;;;;57.30;23.50;;;;;;;6.45;92.03;99304.95;226871;1269;22630;-76
2024/02/29 01:52:32;;;;;;;55.20;22.80;;;;;;;6.46;91.95;99306.09;226900;1271;22570;-75
2024/02/29 01:57:34;;;;;;;45.90;23.10;;;;;;;6.48;92.45;99300.69;226811;1270;24260;-76
2024/02/29 02:02:38;;;;;;;54.30;24.10;;;;;;;6.48;92.01;99301.84;226762;1271;22543;-76
2024/02/29 02:07:43;;;;;;;51.40;24.20;;;;;;;6.49;92.46;99297.42;226860;1267;23273;-76
2024/02/29 02:12:47;;;;;;;50.00;24.50;;;;;;;6.48;91.71;99294.14;226891;1272;22574;-76
2024/02/29 02:17:50;;;;;;;53.80;25.70;;;;;;;6.50;92.26;99295.42;226780;1273;22546;-75
2024/02/29 02:22:52;;;;;;;74.70;26.90;;;;;;;6.53;92.50;99292.63;226863;1270;23277;-75
2024/02/29 02:27:54;;;;;;;63.60;25.90;;;;;;;6.55;92.13;99292.42;226903;1271;22673;-77
2024/02/29 02:32:56;;;;;;;61.20;24.90;;;;;;;6.57;92.40;99286.80;226816;1273;22553;-76
2024/02/29 02:37:59;;;;;;;61.90;24.50;;;;;;;6.59;92.59;99285.67;226828;1271;22642;-76
2024/02/29 02:43:01;;;;;;;47.10;23.00;;;;;;;6.64;92.57;99278.64;226692;1273;22536;-76
2024/02/29 02:48:04;;;;;;;42.60;23.10;;;;;;;6.68;92.12;99281.68;226723;1272;22585;-76
2024/02/29 02:53:07;;;;;;;36.10;19.20;;;;;;;6.71;92.27;99274.88;226791;1271;22524;-76
2024/02/29 02:58:09;;;;;;;39.80;19.90;;;;;;;6.75;92.55;99272.11;226911;1271;22564;-76
2024/02/29 03:03:11;;;;;;;56.50;22.10;;;;;;;6.76;92.37;99273.20;226864;1271;22534;-77
2024/02/29 03:08:13;;;;;;;45.90;21.40;;;;;;;6.81;92.34;99269.79;226884;1273;22535;-76
2024/02/29 03:13:15;;;;;;;42.30;21.40;;;;;;;6.84;92.19;99268.54;226766;1272;22544;-76
2024/02/29 03:18:18;;;;;;;46.90;21.50;;;;;;;6.86;92.34;99269.77;226791;1273;22550;-76
2024/02/29 03:23:20;;;;;;;49.70;21.70;;;;;;;6.86;92.30;99268.03;226776;1268;22564;-76
2024/02/29 03:28:22;;;;;;;45.60;22.20;;;;;;;6.87;92.47;99261.94;226929;1271;22550;-76
2024/02/29 03:33:24;;;;;;;40.50;21.60;;;;;;;6.90;92.44;99266.34;226737;1269;22546;-76
2024/02/29 03:38:26;;;;;;;46.50;21.80;;;;;;;6.94;92.48;99260.27;226770;1272;24232;-77
2024/02/29 03:43:28;;;;;;;42.20;22.20;;;;;;;6.95;92.58;99260.25;226735;1273;22547;-75
2024/02/29 03:48:30;;;;;;;45.20;22.40;;;;;;;6.96;92.54;99261.60;226867;1273;22549;-75
2024/02/29 03:53:32;;;;;;;38.50;20.70;;;;;;;6.95;92.19;99250.33;226765;1272;22550;-76
2024/02/29 03:58:34;;;;;;;38.00;20.60;;;;;;;6.95;92.09;99253.81;226734;1273;22561;-76
2024/02/29 04:03:40;;;;;;;39.00;20.10;;;;;;;6.95;92.13;99249.44;226749;1272;22545;-76
2024/02/29 04:08:42;;;;;;;38.90;19.80;;;;;;;6.96;92.30;99242.36;226837;1271;22543;-76
2024/02/29 04:13:45;;;;;;;51.20;21.40;;;;;;;6.97;92.29;99236.23;226694;1268;22544;-76
2024/02/29 04:18:47;;;;;;;52.20;24.10;;;;;;;6.98;92.20;99231.42;226857;1268;22590;-75
2024/02/29 04:23:49;;;;;;;45.60;21.90;;;;;;;7.01;92.32;99230.52;226767;1273;22547;-76
2024/02/29 04:28:51;;;;;;;44.00;21.60;;;;;;;7.01;92.26;99233.94;226652;1273;22561;-75
2024/02/29 04:33:53;;;;;;;44.00;20.90;;;;;;;6.98;92.19;99228.77;226798;1273;22536;-76
2024/02/29 04:38:55;;;;;;;51.20;21.80;;;;;;;6.97;91.90;99219.27;226789;1273;22539;-76
2024/02/29 04:43:57;;;;;;;58.80;20.90;;;;;;;6.98;92.42;99224.06;226694;1271;22553;-75
2024/02/29 04:48:59;;;;;;;54.20;21.10;;;;;;;6.99;92.48;99225.38;226670;1271;22572;-76
2024/02/29 04:54:01;;;;;;;46.70;22.00;;;;;;;7.00;92.05;99220.17;226715;1270;22564;-76
2024/02/29 04:59:06;;;;;;;48.30;22.70;;;;;;;7.02;92.05;99221.20;226767;1267;22547;-77
2024/02/29 05:04:08;;;;;;;54.90;24.20;;;;;;;7.02;92.23;99219.66;226760;1270;22576;-76
2024/02/29 05:09:11;;;;;;;57.30;25.30;;;;;;;7.04;92.10;99224.17;226683;1272;23005;-76
2024/02/29 05:14:13;;;;;;;61.10;26.60;;;;;;;7.06;92.18;99224.27;226747;1270;22576;-77
2024/02/29 05:19:15;;;;;;;61.10;25.60;;;;;;;7.10;92.32;99220.61;226818;1271;22543;-76
2024/02/29 05:24:18;;;;;;;61.60;28.00;;;;;;;7.14;92.18;99222.81;226705;1271;22588;-76
2024/02/29 05:29:20;;;;;;;57.60;26.90;;;;;;;7.18;92.24;99218.02;226871;1271;22563;-76
2024/02/29 05:34:23;;;;;;;63.80;28.00;;;;;;;7.21;92.57;99218.92;226702;1273;22546;-76
2024/02/29 05:39:26;;;;;;;64.30;27.50;;;;;;;7.23;92.03;99218.35;226712;1270;22537;-76
2024/02/29 05:44:29;;;;;;;68.10;29.40;;;;;;;7.25;91.97;99220.50;226731;1269;22543;-75
2024/02/29 05:49:31;;;;;;;73.40;30.40;;;;;;;7.27;92.26;99225.83;226777;1273;22539;-76
2024/02/29 05:54:33;;;;;;;72.60;30.20;;;;;;;7.29;92.20;99224.02;226689;1271;22547;-76
2024/02/29 05:59:36;;;;;;;67.90;29.60;;;;;;;7.34;92.42;99220.08;226804;1273;22561;-76
2024/02/29 06:04:38;;;;;;;71.40;28.40;;;;;;;7.37;92.73;99220.07;226699;1273;24400;-76
2024/02/29 06:09:43;;;;;;;64.40;29.90;;;;;;;7.38;92.09;99222.91;226678;1271;22544;-76
2024/02/29 06:14:46;;;;;;;67.40;29.90;;;;;;;7.37;91.86;99212.35;226687;1273;22535;-76
2024/02/29 06:19:49;;;;;;;66.00;28.70;;;;;;;7.37;91.88;99210.94;226699;1269;22588;-76
2024/02/29 06:24:51;;;;;;;71.30;31.40;;;;;;;7.38;92.00;99214.20;226751;1272;22574;-76
2024/02/29 06:29:53;;;;;;;65.70;30.40;;;;;;;7.41;92.09;99220.52;226811;1268;22548;-77
2024/02/29 06:34:55;;;;;;;69.80;32.10;;;;;;;7.44;92.08;99224.56;226796;1271;22539;-76
2024/02/29 06:39:58;;;;;;;64.00;29.20;;;;;;;7.49;91.91;99225.87;226778;1271;22654;-77
2024/02/29 06:45:03;;;;;;;58.50;29.10;;;;;;;7.55;92.39;99224.40;226617;1259;22551;-76
2024/02/29 06:50:06;;;;;;;67.10;31.60;;;;;;;7.66;92.68;99221.84;226422;1265;22561;-75
2024/02/29 06:55:08;;;;;;;61.80;31.70;;;;;;;7.83;93.13;99222.36;226505;1254;22543;-77
2024/02/29 07:00:12;;;;;;;66.30;30.20;;;;;;;7.92;92.48;99220.29;226353;1262;22601;-77
2024/02/29 07:05:15;;;;;;;71.50;33.00;;;;;;;7.96;92.09;99212.58;226426;1265;22545;-79
2024/02/29 07:10:17;;;;;;;76.10;31.80;;;;;;;8.01;92.20;99207.81;226341;1270;22586;-77
2024/02/29 07:15:19;;;;;;;76.50;32.60;;;;;;;8.06;92.11;99209.86;226368;1265;22637;-77
2024/02/29 07:20:21;;;;;;;74.80;32.20;;;;;;;8.11;91.88;99204.05;226396;1265;22561;-81
2024/02/29 07:25:27;;;;;;;75.20;32.10;;;;;;;8.15;91.83;99200.91;226400;1265;23663;-77
2024/02/29 07:30:30;;;;;;;77.10;32.50;;;;;;;8.20;91.91;99202.08;226327;1257;22540;-75
2024/02/29 07:35:33;;;;;;;77.10;31.50;;;;;;;8.24;91.75;99196.46;226286;1266;25099;-76
2024/02/29 07:40:35;;;;;;;77.80;31.90;;;;;;;8.24;91.71;99190.09;226356;1270;22546;-75
2024/02/29 07:45:37;;;;;;;83.80;33.60;;;;;;;8.30;91.77;99186.71;226449;1250;22559;-74
2024/02/29 07:50:39;;;;;;;81.90;33.00;;;;;;;8.38;91.61;99186.05;226454;1254;23047;-75
2024/02/29 07:55:41;;;;;;;81.80;32.30;;;;;;;8.45;91.47;99193.09;226416;1265;26134;-75
2024/02/29 08:00:43;;;;;;;78.10;32.80;;;;;;;8.52;91.33;99191.68;226506;1262;22539;-76
2024/02/29 08:05:46;;;;;;;81.40;33.90;;;;;;;8.60;91.46;99191.95;226417;1271;22824;-76
2024/02/29 08:10:49;;;;;;;71.30;31.30;;;;;;;8.67;91.81;99188.68;226520;1254;23803;-75
2024/02/29 08:15:51;;;;;;;72.50;31.10;;;;;;;8.74;91.78;99191.93;226522;1269;22612;-76
2024/02/29 08:20:53;;;;;;;70.20;31.90;;;;;;;8.80;91.70;99194.00;226555;1258;22550;-76
2024/02/29 08:25:55;;;;;;;66.90;31.60;;;;;;;8.89;91.48;99186.62;226566;1273;22564;-76
2024/02/29 08:30:57;;;;;;;59.40;31.80;;;;;;;8.98;91.24;99174.88;226453;1265;22563;-77
2024/02/29 08:36:00;;;;;;;63.90;30.60;;;;;;;9.07;91.08;99174.35;226420;1259;25410;-77
2024/02/29 08:41:04;;;;;;;58.30;30.80;;;;;;;9.18;91.28;99179.87;226606;1272;22544;-76
2024/02/29 08:46:07;;;;;;;61.40;31.80;;;;;;;9.30;91.11;99180.27;226609;1273;22666;-75
2024/02/29 08:51:09;;;;;;;65.20;31.00;;;;;;;9.37;90.71;99173.20;226317;1267;22535;-75
2024/02/29 08:56:11;;;;;;;66.10;32.40;;;;;;;9.34;90.20;99169.47;226562;1269;22560;-76
2024/02/29 09:01:13;;;;;;;62.00;31.10;;;;;;;9.35;90.28;99158.33;226565;1271;22532;-75
2024/02/29 09:06:16;;;;;;;70.60;35.70;;;;;;;9.39;90.39;99156.88;226384;1269;25502;-76
2024/02/29 09:11:18;;;;;;;64.90;33.10;;;;;;;9.48;90.51;99163.38;226534;1265;22676;-75
2024/02/29 09:16:20;;;;;;;60.20;32.00;;;;;;;9.58;90.20;99165.41;226557;1272;22544;-76
2024/02/29 09:21:22;;;;;;;58.10;32.60;;;;;;;9.68;90.06;99159.81;226578;1266;22535;-75
2024/02/29 09:26:25;;;;;;;60.10;32.80;;;;;;;9.83;90.20;99155.44;226364;1269;22640;-75
2024/02/29 09:31:27;;;;;;;53.80;32.00;;;;;;;9.99;89.67;99152.29;226298;1253;22560;-78
2024/02/29 09:36:31;;;;;;;54.40;32.90;;;;;;;10.18;89.51;99146.05;226237;1256;24286;-75
2024/02/29 09:41:33;;;;;;;56.90;34.10;;;;;;;10.34;89.26;99143.71;226397;1267;22539;-75
2024/02/29 09:46:55;;;;;;;46.00;30.30;;;;;;;10.47;88.65;99135.65;226338;1251;22536;-76
2024/02/29 09:51:58;;;;;;;46.50;31.00;;;;;;;10.58;88.17;99138.91;226371;1272;22575;-77
2024/02/29 09:57:01;;;;;;;47.90;30.40;;;;;;;10.73;88.21;99133.05;226407;1267;24349;-76
2024/02/29 10:02:05;;;;;;;47.30;31.00;;;;;;;10.89;88.23;99130.65;226288;1266;24643;-76
2024/02/29 10:07:07;;;;;;;48.60;33.30;;;;;;;11.07;88.07;99128.67;226449;1266;22595;-78
2024/02/29 10:12:15;;;;;;;47.70;32.80;;;;;;;11.24;87.69;99122.55;226097;1269;22540;-77
2024/02/29 10:17:17;;;;;;;46.70;32.60;;;;;;;11.42;87.59;99126.27;226209;1256;22637;-77
2024/02/29 10:22:20;;;;;;;48.80;32.70;;;;;;;11.57;87.17;99116.05;226386;1262;22551;-77
2024/02/29 10:27:22;;;;;;;57.30;41.70;;;;;;;11.76;87.26;99112.16;226176;1266;22591;-78
2024/02/29 10:32:24;;;;;;;45.40;30.70;;;;;;;11.98;86.87;99097.48;226009;1257;22535;-78
2024/02/29 10:37:26;;;;;;;45.60;31.90;;;;;;;12.01;86.08;99089.70;226177;1272;22551;-78
2024/02/29 10:42:28;;;;;;;45.00;31.50;;;;;;;12.02;86.27;99072.95;226166;1268;22541;-78
2024/02/29 10:47:36;;;;;;;43.40;30.10;;;;;;;12.11;86.33;99060.73;226139;1263;22539;-78
2024/02/29 10:52:48;;;;;;;44.00;30.60;;;;;;;12.30;86.34;99053.92;226157;1254;22600;-78
2024/02/29 10:57:56;;;;;;;49.30;32.30;;;;;;;12.51;86.03;99049.75;226162;1272;22572;-77
2024/02/29 11:02:59;;;;;;;42.90;29.70;;;;;;;12.72;85.95;99042.66;226259;1262;22547;-79
2024/02/29 11:08:02;;;;;;;42.30;29.30;;;;;;;12.85;85.25;99032.30;226426;1257;22589;-79
2024/02/29 11:13:04;;;;;;;39.60;26.30;;;;;;;12.93;84.56;99019.06;226570;1273;22558;-79
2024/02/29 11:18:06;;;;;;;38.50;27.00;;;;;;;13.04;84.54;99013.66;226156;1256;22559;-82
2024/02/29 11:23:09;;;;;;;40.40;28.40;;;;;;;13.21;84.41;99006.27;226158;1260;22586;-80
2024/02/29 11:28:13;;;;;;;39.90;27.10;;;;;;;13.35;84.06;99006.89;226455;1253;22556;-80
2024/02/29 11:33:15;;;;;;;40.60;28.80;;;;;;;13.50;83.95;98999.75;226402;1255;24816;-80
2024/02/29 11:38:21;;;;;;;33.90;25.90;;;;;;;13.68;83.93;98997.12;226249;1263;22514;-84
2024/02/29 11:43:33;;;;;;;39.10;27.10;;;;;;;13.79;83.24;98985.54;226233;1256;22575;-79
2024/02/29 11:48:38;;;;;;;34.90;25.40;;;;;;;13.87;82.70;98980.70;226213;1250;24295;-79
2024/02/29 11:53:43;;;;;;;37.10;25.90;;;;;;;13.98;82.35;98974.62;226562;1269;25355;-79
2024/02/29 11:58:46;;;;;;;33.90;24.00;;;;;;;14.12;82.26;98971.88;226212;1255;22664;-79
2024/02/29 12:03:49;;;;;;;32.60;23.30;;;;;;;14.29;81.68;98967.44;226148;1272;22584;-79
2024/02/29 12:08:51;;;;;;;34.50;23.00;;;;;;;14.55;81.60;98962.63;226301;1271;22581;-79
2024/02/29 12:13:54;;;;;;;39.90;29.40;;;;;;;14.75;81.03;98954.73;226275;1266;22560;-81
2024/02/29 12:18:55;;;;;;;44.90;30.40;;;;;;;14.70;79.95;98955.36;226156;1259;22540;-79
2024/02/29 12:23:59;;;;;;;48.50;29.80;;;;;;;14.70;80.23;98952.19;226108;1273;22628;-78
2024/02/29 12:29:01;;;;;;;41.90;28.50;;;;;;;14.84;80.69;98941.98;226183;1265;22829;-80
2024/02/29 12:34:04;;;;;;;43.00;28.90;;;;;;;14.94;80.11;98935.59;226254;1264;23304;-81
2024/02/29 12:39:10;;;;;;;41.90;28.90;;;;;;;14.87;79.70;98928.55;226391;1259;22566;-80
2024/02/29 12:44:12;;;;;;;42.30;29.40;;;;;;;14.69;78.87;98925.19;226304;1254;24791;-81
2024/02/29 12:49:14;;;;;;;46.20;31.00;;;;;;;14.66;79.91;98921.04;226330;1254;22571;-80
2024/02/29 12:54:16;;;;;;;40.80;29.30;;;;;;;14.73;79.65;98910.84;226147;1270;173819;-81
2024/02/29 12:59:18;;;;;;;40.00;28.60;;;;;;;14.77;79.46;98900.02;226502;1270;22595;-80
2024/02/29 13:04:26;;;;;;;38.20;26.00;;;;;;;14.74;79.47;98896.02;226343;1253;22536;-80
2024/02/29 13:09:28;;;;;;;34.90;25.30;;;;;;;14.74;79.36;98886.27;226355;1270;22563;-81
2024/02/29 13:14:30;;;;;;;33.40;25.40;;;;;;;14.71;79.20;98878.64;226343;1256;22620;-81
2024/02/29 13:19:32;;;;;;;31.60;24.80;;;;;;;14.77;78.80;98871.30;226458;1263;22547;-79
2024/02/29 13:24:38;;;;;;;31.40;22.90;;;;;;;14.82;78.59;98864.45;226515;1266;22553;-83
2024/02/29 13:29:40;;;;;;;32.30;24.00;;;;;;;14.81;78.08;98859.16;226569;1266;22555;-80
2024/02/29 13:34:42;;;;;;;29.90;23.50;;;;;;;14.74;77.93;98857.68;226466;1269;24390;-81
2024/02/29 13:39:44;;;;;;;31.00;23.70;;;;;;;14.65;77.95;98853.69;226553;1257;22546;-80
2024/02/29 13:44:47;;;;;;;32.40;23.10;;;;;;;14.61;77.83;98854.19;226575;1268;22539;-81
2024/02/29 13:49:49;;;;;;;34.30;24.50;;;;;;;14.58;77.99;98853.17;226487;1263;25328;-81
2024/02/29 13:54:52;;;;;;;32.30;24.30;;;;;;;14.57;77.81;98851.95;226550;1272;22546;-81
2024/02/29 13:59:54;;;;;;;33.50;23.60;;;;;;;14.55;77.88;98846.33;226606;1266;22602;-81
2024/02/29 14:04:56;;;;;;;33.20;23.50;;;;;;;14.54;78.18;98841.34;226502;1253;23020;-79
2024/02/29 14:09:58;;;;;;;30.10;22.60;;;;;;;14.63;78.36;98840.11;226522;1265;22567;-79
2024/02/29 14:15:02;;;;;;;48.70;37.30;;;;;;;14.73;77.93;98835.51;226443;1269;27106;-81
2024/02/29 14:20:05;;;;;;;29.80;22.90;;;;;;;14.75;77.51;98829.41;226613;1272;22547;-79
2024/02/29 14:25:08;;;;;;;27.40;20.10;;;;;;;14.72;76.86;98827.17;226543;1256;22539;-79
2024/02/29 14:30:12;;;;;;;34.30;22.60;;;;;;;14.68;76.89;98828.80;226570;1266;22571;-81
2024/02/29 14:35:15;;;;;;;28.00;20.70;;;;;;;14.64;76.89;98829.10;226574;1273;22641;-83
2024/02/29 14:40:17;;;;;;;30.00;21.70;;;;;;;14.62;77.04;98821.98;226591;1258;22567;-81
2024/02/29 14:45:19;;;;;;;28.70;21.60;;;;;;;14.62;77.06;98820.36;226489;1261;22656;-80
2024/02/29 14:50:21;;;;;;;29.90;22.90;;;;;;;14.64;77.02;98811.59;226443;1254;22560;-80
2024/02/29 14:55:23;;;;;;;31.30;22.10;;;;;;;14.60;76.59;98810.09;226510;1261;22608;-80
2024/02/29 15:00:27;;;;;;;30.90;23.30;;;;;;;14.49;76.70;98798.84;226313;1254;25248;-81
2024/02/29 15:05:30;;;;;;;32.80;23.20;;;;;;;14.39;76.90;98798.40;226508;1273;22558;-81
2024/02/29 15:10:32;;;;;;;32.20;23.60;;;;;;;14.27;76.89;98786.99;226550;1273;22589;-82
2024/02/29 15:15:34;;;;;;;32.20;24.40;;;;;;;14.17;77.11;98785.28;226587;1273;22557;-82
2024/02/29 15:20:36;;;;;;;32.20;23.80;;;;;;;14.07;77.19;98779.40;226497;1267;24990;-82
2024/02/29 15:25:45;;;;;;;36.70;24.40;;;;;;;13.96;77.11;98776.05;226639;1260;22611;-81
2024/02/29 15:30:47;;;;;;;33.50;23.80;;;;;;;13.83;77.17;98775.72;226830;1273;23424;-80
2024/02/29 15:35:49;;;;;;;35.10;23.60;;;;;;;13.70;77.16;98777.67;226913;1273;22578;-79
2024/02/29 15:40:52;;;;;;;34.70;25.30;;;;;;;13.55;77.46;98775.54;226828;1270;24248;-81
2024/02/29 15:45:53;;;;;;;38.30;26.60;;;;;;;13.40;77.36;98771.19;226951;1270;22542;-80
2024/02/29 15:50:57;;;;;;;41.60;29.00;;;;;;;13.24;77.54;98763.77;226919;1270;22878;-80
2024/02/29 15:55:59;;;;;;;44.00;30.10;;;;;;;13.09;77.74;98759.88;226748;1270;22570;-80
2024/02/29 16:01:05;;;;;;;42.00;27.20;;;;;;;12.91;78.15;98756.97;226880;1270;23013;-81
2024/02/29 16:06:08;;;;;;;38.70;27.00;;;;;;;12.75;78.08;98761.86;226906;1271;22563;-81
2024/02/29 16:11:11;;;;;;;39.60;28.40;;;;;;;12.58;78.26;98756.40;226827;1273;22555;-81
2024/02/29 16:16:12;;;;;;;41.80;27.80;;;;;;;12.39;78.52;98757.75;226950;1272;24203;-81
2024/02/29 16:21:14;;;;;;;51.50;32.70;;;;;;;12.21;78.51;98759.13;226824;1270;22653;-81
2024/02/29 16:26:17;;;;;;;45.90;32.20;;;;;;;12.03;78.78;98757.71;226966;1273;22560;-81
2024/02/29 16:31:19;;;;;;;44.00;30.50;;;;;;;11.86;79.05;98757.48;226817;1270;23015;-81
2024/02/29 16:36:21;;;;;;;48.20;31.60;;;;;;;11.68;79.09;98757.60;226891;1273;22656;-81
2024/02/29 16:41:23;;;;;;;46.70;31.60;;;;;;;11.53;79.42;98756.05;226963;1273;23277;-81
2024/02/29 16:46:27;;;;;;;50.20;33.30;;;;;;;11.37;79.63;98761.40;226943;1271;22554;-82
2024/02/29 16:51:29;;;;;;;50.00;32.70;;;;;;;11.20;79.85;98757.79;226882;1273;22549;-81
2024/02/29 16:56:31;;;;;;;54.20;34.20;;;;;;;11.00;79.94;98754.05;226832;1273;22563;-80
2024/02/29 17:01:33;;;;;;;53.90;35.60;;;;;;;10.79;80.17;98747.20;226847;1250;22890;-82
2024/02/29 17:06:36;;;;;;;56.80;37.70;;;;;;;10.59;80.43;98747.42;226955;1269;22578;-79
2024/02/29 17:11:38;;;;;;;55.30;37.80;;;;;;;10.40;80.66;98743.29;226832;1267;22589;-80
2024/02/29 17:16:41;;;;;;;52.70;35.90;;;;;;;10.22;80.78;98750.56;226925;1268;25320;-82
2024/02/29 17:21:43;;;;;;;50.30;34.40;;;;;;;10.04;81.09;98752.52;226847;1266;22647;-82
2024/02/29 17:26:46;;;;;;;51.90;31.30;;;;;;;9.86;81.22;98755.23;226862;1270;22551;-82
2024/02/29 17:31:48;;;;;;;48.00;30.80;;;;;;;9.70;81.88;98752.26;226920;1272;22553;-81
2024/02/29 17:36:50;;;;;;;49.30;31.20;;;;;;;9.63;82.52;98749.13;226948;1263;22543;-82
2024/02/29 17:41:53;;;;;;;48.00;31.30;;;;;;;9.56;82.58;98745.17;226866;1262;22615;-80
2024/02/29 17:46:55;;;;;;;50.70;31.90;;;;;;;9.45;82.80;98736.92;226878;1270;22553;-80
2024/02/29 17:51:57;;;;;;;51.00;33.20;;;;;;;9.37;82.94;98732.53;226973;1267;23010;-80
2024/02/29 17:56:59;;;;;;;56.20;34.60;;;;;;;9.30;83.12;98729.61;226989;1268;22542;-81
2024/02/29 18:02:01;;;;;;;56.20;36.00;;;;;;;9.28;83.57;98731.94;226886;1271;24235;-82
2024/02/29 18:07:04;;;;;;;61.30;37.30;;;;;;;9.28;84.02;98724.98;226562;1273;22660;-81
2024/02/29 18:12:06;;;;;;;66.20;38.70;;;;;;;9.26;84.12;98725.36;226942;1271;24222;-81
2024/02/29 18:17:09;;;;;;;60.70;37.30;;;;;;;9.23;84.25;98717.84;226922;1270;22570;-81
2024/02/29 18:22:11;;;;;;;62.80;37.00;;;;;;;9.17;84.36;98710.01;226869;1270;25405;-82
2024/02/29 18:27:15;;;;;;;61.30;38.30;;;;;;;9.12;84.68;98700.79;226947;1270;23950;-81
2024/02/29 18:32:18;;;;;;;59.60;37.50;;;;;;;9.08;84.69;98697.92;226735;1273;22543;-81
2024/02/29 18:37:20;;;;;;;54.20;34.50;;;;;;;9.04;84.92;98695.98;226961;1273;22586;-82
2024/02/29 18:42:22;;;;;;;60.80;38.30;;;;;;;9.00;84.92;98695.59;226920;1273;24951;-82
2024/02/29 18:47:24;;;;;;;58.90;37.10;;;;;;;8.96;85.17;98692.72;226885;1266;22550;-81
2024/02/29 18:52:26;;;;;;;60.70;37.80;;;;;;;8.91;85.30;98689.15;226866;1254;25087;-81
2024/02/29 18:57:28;;;;;;;60.00;38.40;;;;;;;8.84;85.39;98683.52;226904;1273;22547;-82
2024/02/29 19:02:30;;;;;;;62.10;39.70;;;;;;;8.80;85.66;98686.11;226842;1254;22571;-81
2024/02/29 19:07:32;;;;;;;61.80;39.00;;;;;;;8.75;85.69;98682.11;226975;1270;22561;-83
2024/02/29 19:12:36;;;;;;;62.20;37.80;;;;;;;8.69;85.97;98681.25;226857;1266;22611;-82
2024/02/29 19:17:38;;;;;;;63.00;40.40;;;;;;;8.65;86.10;98672.42;226820;1265;22570;-81
2024/02/29 19:22:41;;;;;;;67.70;41.30;;;;;;;8.62;86.31;98676.52;226862;1270;23875;-81
2024/02/29 19:27:43;;;;;;;66.10;40.70;;;;;;;8.59;86.69;98669.48;226839;1272;22551;-82
2024/02/29 19:32:45;;;;;;;60.50;38.70;;;;;;;8.54;86.29;98664.46;226908;1268;22714;-82
2024/02/29 19:37:47;;;;;;;63.90;40.60;;;;;;;8.51;86.63;98667.98;226731;1273;22622;-82
2024/02/29 19:42:49;;;;;;;67.70;42.40;;;;;;;8.46;86.69;98662.23;226860;1273;22787;-82
2024/02/29 19:47:51;;;;;;;67.40;43.30;;;;;;;8.41;87.03;98661.55;226903;1273;22627;-83
2024/02/29 19:52:54;;;;;;;64.90;41.10;;;;;;;8.39;87.26;98655.02;226868;1270;22554;-82
2024/02/29 19:57:58;;;;;;;64.30;42.60;;;;;;;8.35;87.34;98657.40;226866;1266;22612;-81
2024/02/29 20:03:00;;;;;;;69.70;43.10;;;;;;;8.29;87.63;98652.80;226853;1250;24199;-81
2024/02/29 20:08:03;;;;;;;66.20;43.10;;;;;;;8.25;87.52;98650.06;226932;1271;22590;-86
2024/02/29 20:13:05;;;;;;;63.30;41.30;;;;;;;8.21;87.67;98654.76;226824;1273;22659;-82
2024/02/29 20:18:07;;;;;;;71.80;47.20;;;;;;;8.18;87.72;98651.73;226839;1273;22548;-82
2024/02/29 20:23:10;;;;;;;68.40;44.70;;;;;;;8.16;88.10;98650.64;226920;1269;22557;-82
2024/02/29 20:28:12;;;;;;;75.40;47.60;;;;;;;8.15;88.28;98645.31;226954;1271;22543;-82
2024/02/29 20:33:17;;;;;;;75.30;46.80;;;;;;;8.14;88.14;98633.80;226644;1273;22542;-81
2024/02/29 20:38:19;;;;;;;69.10;44.60;;;;;;;8.12;88.13;98631.58;226796;1270;22626;-81
2024/02/29 20:43:21;;;;;;;78.80;49.10;;;;;;;8.11;88.56;98626.21;226734;1271;25490;-82
2024/02/29 20:48:24;;;;;;;72.10;46.10;;;;;;;8.10;88.50;98620.57;226795;1268;22657;-81
2024/02/29 20:53:25;;;;;;;72.80;46.00;;;;;;;8.10;88.80;98618.63;226864;1267;22547;-82
2024/02/29 20:58:27;;;;;;;73.90;45.30;;;;;;;8.06;88.74;98611.84;226836;1257;22562;-82
2024/02/29 21:03:30;;;;;;;68.20;45.50;;;;;;;8.00;88.49;98610.27;226958;1273;22587;-82
2024/02/29 21:08:32;;;;;;;70.00;43.70;;;;;;;7.92;88.66;98603.17;226856;1270;22615;-81
2024/02/29 21:13:35;;;;;;;64.20;40.80;;;;;;;7.84;88.60;98602.58;226917;1273;22547;-81
2024/02/29 21:18:38;;;;;;;73.20;45.70;;;;;;;7.76;88.57;98597.48;226912;1256;22774;-81
2024/02/29 21:23:40;;;;;;;70.30;43.00;;;;;;;7.70;88.80;98593.44;226861;1268;22551;-82
2024/02/29 21:28:46;;;;;;;64.40;41.60;;;;;;;7.67;88.75;98585.01;226908;1252;22553;-82
2024/02/29 21:33:50;;;;;;;75.50;45.80;;;;;;;7.66;89.26;98583.59;226795;1270;22579;-82
2024/02/29 21:38:52;;;;;;;71.40;45.90;;;;;;;7.65;89.28;98575.58;226898;1255;22546;-81
2024/02/29 21:43:56;;;;;;;76.60;48.50;;;;;;;7.65;89.27;98573.60;226852;1270;22579;-82
2024/02/29 21:48:58;;;;;;;77.80;46.80;;;;;;;7.63;89.21;98573.75;226868;1268;22543;-82
2024/02/29 21:53:59;;;;;;;78.10;49.30;;;;;;;7.60;89.45;98563.38;226941;1271;24743;-82
2024/02/29 21:59:01;;;;;;;76.20;47.30;;;;;;;7.56;89.55;98561.98;226946;1267;22555;-82
2024/02/29 22:04:04;;;;;;;80.10;47.10;;;;;;;7.53;89.74;98559.16;226907;1268;22643;-82
2024/02/29 22:09:10;;;;;;;74.00;46.50;;;;;;;7.50;89.33;98557.02;226927;1249;24216;-82
2024/02/29 22:14:12;;;;;;;77.30;47.60;;;;;;;7.48;89.48;98553.86;226857;1274;22563;-82
2024/02/29 22:19:14;;;;;;;78.00;49.00;;;;;;;7.49;89.65;98553.40;226893;1272;22536;-81
2024/02/29 22:24:16;;;;;;;83.90;51.90;;;;;;;7.49;89.99;98548.40;226859;1271;22581;-79
2024/02/29 22:29:18;;;;;;;84.80;49.90;;;;;;;7.47;90.11;98543.12;226755;1272;24247;-82
2024/02/29 22:34:20;;;;;;;82.60;50.10;;;;;;;7.45;89.84;98541.59;226669;1273;22543;-82
2024/02/29 22:39:22;;;;;;;82.10;49.90;;;;;;;7.41;89.96;98534.20;226760;1262;24263;-82
2024/02/29 22:44:25;;;;;;;82.90;48.70;;;;;;;7.36;90.06;98523.36;226807;1272;22556;-82
2024/02/29 22:49:27;;;;;;;78.80;49.40;;;;;;;7.34;90.35;98517.58;226769;1270;22589;-81
2024/02/29 22:54:29;;;;;;;78.40;49.30;;;;;;;7.34;90.03;98514.29;226678;1270;22554;-81
2024/02/29 22:59:31;;;;;;;85.70;51.70;;;;;;;7.35;90.23;98504.77;226843;1261;22590;-81
2024/02/29 23:04:33;;;;;;;87.70;53.60;;;;;;;7.34;90.56;98492.79;226779;1273;22578;-80